Time;durP1;ratioP1;P1;durP2;ratioP2;P2;SDS_P1;SDS_P2;PMS_P1;PMS_P2;Temp;Humidity;BMP_temperature;BMP_pressure;BME280_temperature;BME280_humidity;BME280_pressure;Samples;Min_cycle;Max_cycle;Signal;HPM_P1;HPM_P2
2023/12/28 00:01:00;;;;;;;32.08;19.88;;;23.40;39.80;;;;;;6230453;27;85387;-61
2023/12/28 00:04:00;;;;;;;29.42;19.15;;;23.40;39.80;;;;;;6234018;27;83844;-60
2023/12/28 00:07:01;;;;;;;27.52;17.13;;;23.50;39.90;;;;;;6233299;27;83663;-61
2023/12/28 00:10:02;;;;;;;32.22;19.95;;;23.40;40.00;;;;;;6232688;27;85121;-61
2023/12/28 00:13:02;;;;;;;29.63;18.05;;;23.40;40.00;;;;;;6232441;27;84283;-61
2023/12/28 00:16:03;;;;;;;29.88;18.38;;;23.30;40.00;;;;;;6231907;27;83611;-60
2023/12/28 00:19:04;;;;;;;31.88;18.65;;;23.30;40.00;;;;;;6232115;27;84474;-60
2023/12/28 00:22:04;;;;;;;29.27;18.30;;;23.30;40.00;;;;;;6230739;27;83581;-59
2023/12/28 00:25:05;;;;;;;25.85;16.30;;;23.30;40.10;;;;;;6232672;27;84143;-60
2023/12/28 00:28:05;;;;;;;23.10;14.18;;;23.30;40.30;;;;;;6230014;27;83934;-61
2023/12/28 00:31:06;;;;;;;27.25;16.25;;;23.40;40.80;;;;;;6232390;27;83839;-61
2023/12/28 00:34:06;;;;;;;27.67;16.63;;;23.40;40.60;;;;;;6229880;27;85102;-62
2023/12/28 00:37:07;;;;;;;27.27;15.98;;;23.40;40.30;;;;;;6230960;27;85342;-62
2023/12/28 00:40:08;;;;;;;21.42;12.35;;;23.40;40.30;;;;;;6231771;27;86555;-61
2023/12/28 00:43:08;;;;;;;27.27;16.70;;;23.40;40.90;;;;;;6229439;27;84266;-51
2023/12/28 00:46:09;;;;;;;21.63;13.43;;;23.40;40.40;;;;;;6232132;27;83766;-52
2023/12/28 00:49:09;;;;;;;23.38;15.02;;;23.40;40.80;;;;;;6229807;27;83813;-49
2023/12/28 00:52:10;;;;;;;25.70;16.42;;;23.40;40.70;;;;;;6231336;27;83759;-47
2023/12/28 00:55:10;;;;;;;24.30;14.63;;;23.40;40.40;;;;;;6248248;27;85362;-51
2023/12/28 00:58:11;;;;;;;29.58;16.65;;;23.40;40.70;;;;;;6229767;27;85730;-50
2023/12/28 01:01:11;;;;;;;24.98;15.40;;;23.50;40.60;;;;;;6229442;27;84815;-61
2023/12/28 01:04:14;;;;;;;26.98;16.85;;;23.40;40.70;;;;;;6231888;27;84721;-59
2023/12/28 01:07:15;;;;;;;28.17;18.55;;;23.40;40.60;;;;;;6236157;27;85954;-61
2023/12/28 01:10:16;;;;;;;29.13;17.73;;;23.40;40.20;;;;;;6235261;27;84301;-61
2023/12/28 01:13:17;;;;;;;27.70;16.17;;;23.40;40.20;;;;;;6232714;27;84062;-61
2023/12/28 01:16:17;;;;;;;26.23;15.98;;;23.30;40.40;;;;;;6237063;27;83331;-61
2023/12/28 01:19:18;;;;;;;23.65;16.15;;;23.30;40.40;;;;;;6235191;27;83768;-60
2023/12/28 01:22:18;;;;;;;16.70;10.45;;;23.30;40.60;;;;;;6236288;27;83392;-60
2023/12/28 01:25:19;;;;;;;22.55;12.75;;;23.30;41.80;;;;;;6234095;27;84374;-60
2023/12/28 01:28:19;;;;;;;21.15;11.55;;;23.30;41.10;;;;;;6233011;27;84429;-61
2023/12/28 01:31:20;;;;;;;22.60;12.85;;;23.30;41.00;;;;;;6236616;27;85854;-60
2023/12/28 01:34:21;;;;;;;28.73;15.90;;;23.30;40.60;;;;;;6236379;27;85421;-60
2023/12/28 01:37:21;;;;;;;20.75;12.82;;;23.30;40.30;;;;;;6235012;27;83851;-60
2023/12/28 01:40:22;;;;;;;21.63;12.55;;;23.30;40.70;;;;;;6234612;27;86349;-60
2023/12/28 01:43:22;;;;;;;17.52;11.95;;;23.30;41.10;;;;;;6231197;27;85178;-60
2023/12/28 01:46:23;;;;;;;21.27;12.68;;;23.20;41.30;;;;;;6237811;27;83422;-61
2023/12/28 01:49:23;;;;;;;16.30;9.82;;;23.30;41.20;;;;;;6240637;27;85863;-60
2023/12/28 01:52:24;;;;;;;19.52;12.70;;;23.20;41.40;;;;;;6246601;27;83093;-60
2023/12/28 01:55:25;;;;;;;19.98;12.10;;;23.20;41.10;;;;;;6248972;27;83577;-52
2023/12/28 01:58:25;;;;;;;21.77;14.55;;;23.20;40.80;;;;;;6248338;27;83032;-48
2023/12/28 02:01:26;;;;;;;17.60;11.80;;;23.20;40.90;;;;;;6246877;27;85971;-50
2023/12/28 02:04:28;;;;;;;22.80;14.05;;;23.20;41.10;;;;;;6249215;27;85330;-48
2023/12/28 02:07:28;;;;;;;19.08;11.45;;;23.20;40.80;;;;;;6249128;27;83072;-49
2023/12/28 02:10:29;;;;;;;20.63;13.10;;;23.20;41.30;;;;;;6230264;28;83269;-49
2023/12/28 02:13:30;;;;;;;28.33;17.60;;;23.20;40.90;;;;;;6237147;27;83600;-51
2023/12/28 02:16:30;;;;;;;26.95;15.95;;;23.30;40.40;;;;;;6247388;27;83347;-46
2023/12/28 02:19:31;;;;;;;24.52;13.90;;;23.30;40.60;;;;;;6247089;27;86117;-48
2023/12/28 02:22:31;;;;;;;22.27;14.50;;;23.30;40.50;;;;;;6247682;27;84383;-51
2023/12/28 02:25:32;;;;;;;18.25;12.10;;;23.30;40.60;;;;;;6247745;27;83220;-47
2023/12/28 02:28:32;;;;;;;24.75;15.80;;;23.30;40.70;;;;;;6246759;27;83232;-48
2023/12/28 02:31:33;;;;;;;25.20;15.57;;;23.30;40.50;;;;;;6248381;27;83832;-48
2023/12/28 02:34:33;;;;;;;25.33;15.00;;;23.30;40.20;;;;;;6248969;27;84219;-50
2023/12/28 02:37:34;;;;;;;23.27;15.30;;;23.30;40.50;;;;;;6248640;27;83292;-48
2023/12/28 02:40:34;;;;;;;24.88;16.27;;;23.30;40.40;;;;;;6242368;27;86253;-47
2023/12/28 02:43:35;;;;;;;23.60;14.30;;;23.30;40.30;;;;;;6246069;27;85726;-51
2023/12/28 02:46:35;;;;;;;24.45;14.98;;;23.30;40.40;;;;;;6247197;27;83627;-47
2023/12/28 02:49:35;;;;;;;27.67;16.40;;;23.40;40.30;;;;;;6246133;27;86744;-59
2023/12/28 02:52:36;;;;;;;24.25;15.75;;;23.30;40.30;;;;;;6247412;27;83881;-59
2023/12/28 02:55:36;;;;;;;28.05;16.23;;;23.30;40.10;;;;;;6246244;27;85580;-59
2023/12/28 02:58:37;;;;;;;29.20;17.20;;;23.30;40.10;;;;;;6248837;27;83516;-58
2023/12/28 03:01:38;;;;;;;26.75;15.95;;;23.30;40.00;;;;;;6246894;27;86270;-59
2023/12/28 03:04:39;;;;;;;26.38;17.02;;;23.30;40.00;;;;;;6249254;27;83178;-59
2023/12/28 03:07:40;;;;;;;26.88;16.38;;;23.30;40.00;;;;;;6246243;27;86346;-51
2023/12/28 03:10:40;;;;;;;23.85;16.05;;;23.30;40.00;;;;;;6229110;27;86278;-48
2023/12/28 03:13:41;;;;;;;27.70;17.15;;;23.30;40.00;;;;;;6247613;27;84035;-48
2023/12/28 03:16:43;;;;;;;27.02;16.58;;;23.30;40.00;;;;;;6247935;27;85814;-47
2023/12/28 03:19:43;;;;;;;26.42;16.33;;;23.30;40.00;;;;;;6247611;27;83359;-52
2023/12/28 03:22:44;;;;;;;27.13;16.92;;;23.30;40.00;;;;;;6248197;27;83114;-48
2023/12/28 03:25:44;;;;;;;24.05;15.52;;;23.30;40.00;;;;;;6247234;27;83215;-59
2023/12/28 03:28:45;;;;;;;21.83;12.73;;;23.20;40.00;;;;;;6241577;27;83509;-59
2023/12/28 03:31:45;;;;;;;23.95;13.40;;;23.20;40.30;;;;;;6247070;27;86409;-62
2023/12/28 03:34:46;;;;;;;25.70;13.73;;;23.20;40.00;;;;;;6231902;27;84377;-61
2023/12/28 03:37:46;;;;;;;20.02;12.43;;;23.10;40.10;;;;;;6223253;27;85438;-62
2023/12/28 03:40:47;;;;;;;22.90;14.40;;;23.10;40.30;;;;;;6258927;27;86613;-63
2023/12/28 03:43:48;;;;;;;22.90;14.70;;;23.10;40.00;;;;;;6245068;27;84855;-60
2023/12/28 03:46:48;;;;;;;27.85;16.02;;;23.10;40.10;;;;;;6245631;27;83928;-59
2023/12/28 03:49:49;;;;;;;19.50;12.30;;;23.10;40.20;;;;;;6248480;27;83417;-59
2023/12/28 03:52:49;;;;;;;27.67;15.88;;;23.10;40.30;;;;;;6246202;27;83230;-57
2023/12/28 03:55:50;;;;;;;28.33;17.13;;;23.10;40.00;;;;;;6244436;27;85245;-55
2023/12/28 03:58:50;;;;;;;24.60;15.50;;;23.20;39.90;;;;;;6245822;27;84335;-57
2023/12/28 04:01:51;;;;;;;23.17;14.35;;;23.10;39.90;;;;;;6241070;27;83439;-58
2023/12/28 04:04:52;;;;;;;24.00;14.85;;;23.10;40.10;;;;;;6235222;27;83614;-58
2023/12/28 04:07:52;;;;;;;25.08;15.02;;;23.10;40.00;;;;;;6241988;27;90754;-57
2023/12/28 04:10:53;;;;;;;20.73;12.77;;;23.20;39.90;;;;;;6245099;27;83200;-56
2023/12/28 04:13:54;;;;;;;26.85;17.15;;;23.20;40.40;;;;;;6246818;27;83684;-59
2023/12/28 04:16:55;;;;;;;27.42;17.08;;;23.20;40.10;;;;;;6246464;27;83094;-58
2023/12/28 04:19:55;;;;;;;27.00;16.70;;;23.20;40.50;;;;;;6245300;28;86193;-58
2023/12/28 04:22:56;;;;;;;26.63;15.85;;;23.30;40.00;;;;;;6245929;27;83209;-59
2023/12/28 04:25:56;;;;;;;24.90;16.88;;;23.30;39.90;;;;;;6245273;27;84105;-57
2023/12/28 04:28:57;;;;;;;27.90;16.35;;;23.30;39.70;;;;;;6246279;27;83364;-58
2023/12/28 04:31:57;;;;;;;25.55;14.90;;;23.40;39.80;;;;;;6245230;27;86890;-59
2023/12/28 04:34:58;;;;;;;23.80;14.73;;;23.40;39.80;;;;;;6245430;27;87259;-59
2023/12/28 04:37:58;;;;;;;25.23;14.32;;;23.50;39.60;;;;;;6244899;27;85967;-57
2023/12/28 04:40:59;;;;;;;24.45;15.10;;;23.50;39.50;;;;;;6247370;27;82986;-59
2023/12/28 04:43:59;;;;;;;24.60;15.40;;;23.50;39.40;;;;;;6245351;27;85988;-59
2023/12/28 04:47:01;;;;;;;25.63;15.82;;;23.60;39.60;;;;;;6246405;27;83114;-60
2023/12/28 04:50:03;;;;;;;22.58;15.02;;;23.60;39.30;;;;;;6246277;27;82852;-62
2023/12/28 04:53:03;;;;;;;25.45;15.52;;;23.60;39.20;;;;;;6245313;27;85375;-62
2023/12/28 04:56:04;;;;;;;28.00;16.05;;;23.60;39.50;;;;;;6245083;27;85915;-61
2023/12/28 04:59:04;;;;;;;22.30;14.05;;;23.60;39.30;;;;;;6244640;27;84201;-61
2023/12/28 05:02:06;;;;;;;24.95;15.00;;;23.70;39.40;;;;;;6244523;27;85041;-61
2023/12/28 05:05:08;;;;;;;25.70;15.52;;;23.70;39.30;;;;;;6247068;27;83581;-61
2023/12/28 05:08:09;;;;;;;25.45;15.43;;;23.70;39.40;;;;;;6244399;27;83561;-60
2023/12/28 05:11:09;;;;;;;23.02;14.57;;;23.70;39.50;;;;;;6245726;27;94452;-61
2023/12/28 05:14:10;;;;;;;22.17;14.00;;;23.70;39.40;;;;;;6244293;27;84169;-61
2023/12/28 05:17:10;;;;;;;24.08;14.65;;;23.70;39.80;;;;;;6241052;27;91203;-64
2023/12/28 05:20:11;;;;;;;22.48;13.73;;;23.70;39.50;;;;;;6227015;27;84450;-62
2023/12/28 05:23:11;;;;;;;20.63;14.15;;;23.70;39.40;;;;;;6242045;27;83209;-62
2023/12/28 05:26:12;;;;;;;21.92;13.95;;;23.70;39.40;;;;;;6244359;27;86241;-62
2023/12/28 05:29:12;;;;;;;23.48;14.10;;;23.70;39.50;;;;;;6244909;27;83815;-67
2023/12/28 05:32:13;;;;;;;22.48;14.25;;;23.80;39.40;;;;;;6243627;27;83919;-66
2023/12/28 05:35:13;;;;;;;21.92;14.07;;;23.80;39.40;;;;;;6245385;27;84132;-63
2023/12/28 05:38:14;;;;;;;23.35;14.68;;;23.80;39.50;;;;;;6244584;27;83316;-61
2023/12/28 05:41:14;;;;;;;22.73;14.32;;;23.80;40.00;;;;;;6244612;27;83862;-61
2023/12/28 05:44:15;;;;;;;21.60;14.63;;;23.80;39.60;;;;;;6246610;27;82952;-63
2023/12/28 05:47:15;;;;;;;22.20;13.68;;;23.80;39.50;;;;;;6243729;27;83027;-61
2023/12/28 05:50:16;;;;;;;23.70;14.65;;;23.80;39.50;;;;;;6246779;27;83691;-62
2023/12/28 05:53:16;;;;;;;23.58;14.60;;;23.80;39.40;;;;;;6248179;27;83154;-60
2023/12/28 05:56:17;;;;;;;23.48;14.25;;;23.80;39.40;;;;;;6248913;27;84365;-62
2023/12/28 05:59:17;;;;;;;22.27;14.80;;;23.80;39.30;;;;;;6245955;27;90642;-62
2023/12/28 06:02:18;;;;;;;22.88;14.85;;;23.80;39.50;;;;;;6239273;27;83591;-63
2023/12/28 06:05:18;;;;;;;23.75;15.18;;;23.90;39.30;;;;;;6249653;27;84123;-62
2023/12/28 06:08:19;;;;;;;23.70;14.90;;;23.80;39.40;;;;;;6248206;27;84299;-63
2023/12/28 06:11:19;;;;;;;23.85;15.20;;;23.80;39.30;;;;;;6247926;27;82911;-63
2023/12/28 06:14:20;;;;;;;25.17;15.15;;;23.80;39.60;;;;;;6249211;27;83739;-66
2023/12/28 06:17:20;;;;;;;22.23;15.05;;;23.80;39.60;;;;;;6248271;27;82925;-66
2023/12/28 06:20:21;;;;;;;25.15;15.77;;;23.80;39.40;;;;;;6249327;27;83559;-65
2023/12/28 06:23:21;;;;;;;22.63;15.45;;;23.80;39.50;;;;;;6249010;27;83100;-64
2023/12/28 06:26:22;;;;;;;26.75;15.57;;;23.80;39.50;;;;;;6249222;27;83368;-66
2023/12/28 06:29:22;;;;;;;25.95;15.95;;;23.80;39.50;;;;;;6248848;27;83425;-64
2023/12/28 06:32:23;;;;;;;28.52;16.05;;;23.70;39.80;;;;;;6250974;27;85035;-67
2023/12/28 06:35:23;;;;;;;24.15;15.10;;;23.80;39.80;;;;;;6249463;27;84285;-66
2023/12/28 06:38:24;;;;;;;24.10;15.20;;;23.70;39.70;;;;;;6249866;27;84288;-65
2023/12/28 06:41:25;;;;;;;26.33;15.93;;;23.70;39.80;;;;;;6248483;27;85299;-67
2023/12/28 06:44:25;;;;;;;24.10;15.63;;;23.70;39.70;;;;;;6248978;27;83506;-66
2023/12/28 06:47:26;;;;;;;27.08;16.13;;;23.60;39.50;;;;;;6250056;27;83422;-68
2023/12/28 06:50:26;;;;;;;24.65;15.60;;;23.60;39.60;;;;;;6235714;27;83316;-59
2023/12/28 06:53:27;;;;;;;21.05;13.88;;;23.60;39.70;;;;;;6249344;27;83495;-59
2023/12/28 06:56:28;;;;;;;26.77;14.95;;;23.70;39.70;;;;;;6242590;27;83487;-59
2023/12/28 06:59:28;;;;;;;22.00;14.30;;;23.60;39.90;;;;;;6248125;27;83144;-60
2023/12/28 07:02:29;;;;;;;26.23;15.50;;;23.60;40.10;;;;;;6248589;27;84061;-58
2023/12/28 07:05:29;;;;;;;21.25;13.38;;;23.60;40.10;;;;;;6248577;27;84296;-62
2023/12/28 07:08:30;;;;;;;21.15;13.60;;;23.60;40.00;;;;;;6236996;27;84415;-59
2023/12/28 07:11:30;;;;;;;25.05;13.93;;;23.60;39.90;;;;;;6246574;27;83363;-60
2023/12/28 07:14:31;;;;;;;18.52;12.57;;;23.50;39.90;;;;;;6246521;27;83579;-57
2023/12/28 07:17:31;;;;;;;25.60;12.57;;;23.60;40.20;;;;;;6247488;27;83191;-58
2023/12/28 07:20:32;;;;;;;23.73;11.90;;;23.60;40.00;;;;;;6246133;27;82984;-58
2023/12/28 07:23:32;;;;;;;19.08;12.63;;;23.60;40.60;;;;;;6247633;27;84557;-57
2023/12/28 07:26:33;;;;;;;23.50;11.82;;;23.60;40.10;;;;;;6238480;27;91271;-55
2023/12/28 07:29:33;;;;;;;23.17;12.40;;;23.60;40.10;;;;;;6248563;27;83618;-57
2023/12/28 07:32:34;;;;;;;18.25;11.77;;;23.60;40.50;;;;;;6248140;27;83212;-59
2023/12/28 07:35:34;;;;;;;26.75;11.20;;;23.70;40.60;;;;;;6247700;27;83224;-58
2023/12/28 07:38:35;;;;;;;15.85;9.95;;;23.70;41.00;;;;;;6246326;27;83361;-53
2023/12/28 07:41:35;;;;;;;19.08;8.93;;;23.80;41.10;;;;;;6249059;27;83252;-55
2023/12/28 07:44:36;;;;;;;16.77;9.02;;;23.80;41.20;;;;;;6248635;27;80597;-61
2023/12/28 07:47:36;;;;;;;14.98;9.80;;;23.80;41.50;;;;;;6251562;27;81964;-63
2023/12/28 07:50:37;;;;;;;29.83;10.20;;;23.80;41.50;;;;;;6251389;27;80366;-63
2023/12/28 07:53:37;;;;;;;16.05;10.00;;;23.80;41.40;;;;;;6245412;27;82883;-62
2023/12/28 07:56:38;;;;;;;19.48;9.20;;;23.90;42.00;;;;;;6247322;27;84070;-63
2023/12/28 07:59:38;;;;;;;14.95;10.18;;;24.00;42.20;;;;;;6250461;27;83626;-62
2023/12/28 08:02:39;;;;;;;14.70;9.55;;;24.00;42.40;;;;;;6247020;27;83638;-61
2023/12/28 08:05:39;;;;;;;17.80;10.88;;;24.10;42.60;;;;;;6249557;27;81756;-60
2023/12/28 08:08:40;;;;;;;16.67;11.45;;;24.10;43.20;;;;;;6248532;27;82935;-59
2023/12/28 08:11:41;;;;;;;21.90;11.70;;;24.10;43.40;;;;;;6246703;27;82759;-59
2023/12/28 08:14:42;;;;;;;17.85;10.63;;;24.10;43.00;;;;;;6246586;27;83477;-61
2023/12/28 08:17:42;;;;;;;22.38;11.23;;;24.10;43.50;;;;;;6243654;27;83657;-62
2023/12/28 08:20:43;;;;;;;19.25;10.48;;;24.20;44.00;;;;;;6246337;27;83118;-61
2023/12/28 08:23:43;;;;;;;21.38;11.07;;;24.20;43.10;;;;;;6246023;27;83092;-62
2023/12/28 08:26:44;;;;;;;21.88;10.73;;;24.30;43.10;;;;;;6247849;27;83140;-61
2023/12/28 08:29:45;;;;;;;19.38;11.27;;;24.40;43.80;;;;;;6246438;27;83361;-60
2023/12/28 08:32:46;;;;;;;25.40;12.13;;;24.30;42.70;;;;;;6225594;27;86200;-60
2023/12/28 08:35:46;;;;;;;18.10;11.02;;;24.30;42.50;;;;;;6240805;27;83296;-61
2023/12/28 08:38:47;;;;;;;18.50;11.40;;;24.40;42.80;;;;;;6244670;27;86327;-61
2023/12/28 08:41:47;;;;;;;21.17;12.57;;;24.40;42.40;;;;;;6242436;27;84105;-61
2023/12/28 08:44:48;;;;;;;18.75;10.43;;;24.40;42.40;;;;;;6243323;27;82988;-62
2023/12/28 08:47:48;;;;;;;23.13;11.38;;;24.50;43.30;;;;;;6246344;27;83798;-65
2023/12/28 08:50:49;;;;;;;21.58;11.65;;;24.50;43.20;;;;;;6244298;27;84166;-59
2023/12/28 08:53:49;;;;;;;19.50;10.32;;;24.60;43.60;;;;;;6243076;27;83214;-62
2023/12/28 08:56:50;;;;;;;19.42;10.65;;;24.60;43.60;;;;;;6243838;27;83417;-59
2023/12/28 08:59:50;;;;;;;17.10;10.23;;;24.60;43.70;;;;;;6244778;27;83335;-59
2023/12/28 09:02:51;;;;;;;14.95;9.32;;;24.70;43.60;;;;;;6243950;27;83560;-57
2023/12/28 09:05:51;;;;;;;20.38;10.20;;;24.70;43.50;;;;;;6244492;27;83488;-59
2023/12/28 09:08:52;;;;;;;21.15;10.45;;;24.80;43.40;;;;;;6244952;27;85745;-59
2023/12/28 09:11:53;;;;;;;16.33;9.23;;;24.90;43.90;;;;;;6243381;27;85003;-60
2023/12/28 09:14:53;;;;;;;17.85;9.32;;;24.90;43.50;;;;;;6241885;27;83019;-61
2023/12/28 09:17:54;;;;;;;30.92;10.27;;;24.90;43.30;;;;;;6247615;27;81511;-58
2023/12/28 09:20:55;;;;;;;21.63;10.25;;;25.00;44.10;;;;;;6247765;27;83946;-59
2023/12/28 09:23:55;;;;;;;94.25;44.72;;;25.00;43.50;;;;;;6247849;27;84143;-59
2023/12/28 09:26:56;;;;;;;103.38;52.45;;;25.10;43.30;;;;;;6249273;27;83628;-59
2023/12/28 09:29:56;;;;;;;114.68;53.70;;;25.10;43.10;;;;;;6246284;27;83697;-59
2023/12/28 09:32:57;;;;;;;129.95;65.35;;;25.10;42.90;;;;;;6248681;27;83438;-59
2023/12/28 09:35:57;;;;;;;200.70;93.70;;;25.20;42.80;;;;;;6249392;27;83376;-60
2023/12/28 09:38:58;;;;;;;172.88;84.90;;;25.20;42.70;;;;;;6249557;27;88769;-60
2023/12/28 09:41:58;;;;;;;329.80;151.52;;;25.30;42.60;;;;;;6247160;27;83400;-60
2023/12/28 09:44:59;;;;;;;227.40;104.85;;;25.30;42.50;;;;;;6243099;27;85851;-59
2023/12/28 09:47:59;;;;;;;308.15;139.90;;;25.30;42.50;;;;;;6246165;27;87216;-60
2023/12/28 09:51:00;;;;;;;326.20;142.20;;;25.40;42.40;;;;;;6246375;27;85555;-59
2023/12/28 09:54:00;;;;;;;384.35;167.57;;;25.40;42.30;;;;;;6245887;27;86562;-52
2023/12/28 09:57:01;;;;;;;333.00;149.27;;;25.50;42.30;;;;;;6246612;27;85747;-51
2023/12/28 10:00:01;;;;;;;301.75;134.15;;;25.50;42.30;;;;;;6240505;27;87500;-50
2023/12/28 10:03:03;;;;;;;267.08;124.80;;;25.50;42.50;;;;;;6245885;27;85577;-49
2023/12/28 10:06:03;;;;;;;242.65;115.75;;;25.60;42.30;;;;;;6245546;27;85773;-48
2023/12/28 10:09:04;;;;;;;246.80;120.93;;;25.70;42.20;;;;;;6247589;27;85460;-49
2023/12/28 10:12:04;;;;;;;259.88;122.97;;;25.70;42.00;;;;;;6243731;27;88919;-61
2023/12/28 10:15:05;;;;;;;246.57;118.57;;;25.70;42.00;;;;;;6237430;27;86292;-60
2023/12/28 10:18:05;;;;;;;208.75;101.53;;;25.80;42.10;;;;;;6241712;27;88297;-59
2023/12/28 10:21:07;;;;;;;194.77;91.93;;;25.80;41.90;;;;;;6240714;27;85724;-58
2023/12/28 10:24:07;;;;;;;179.63;85.70;;;25.90;41.90;;;;;;6251275;27;86175;-56
2023/12/28 10:27:08;;;;;;;147.68;75.75;;;25.90;42.60;;;;;;6246718;27;82834;-58
2023/12/28 10:30:09;;;;;;;144.77;72.32;;;26.00;41.90;;;;;;6250540;27;83430;-66
2023/12/28 10:33:10;;;;;;;131.50;61.83;;;26.00;42.20;;;;;;6250688;27;83405;-64
2023/12/28 10:36:10;;;;;;;100.60;49.97;;;26.10;41.70;;;;;;6247334;27;82937;-62
2023/12/28 10:39:13;;;;;;;74.10;40.88;;;26.10;40.80;;;;;;6248468;27;83578;-65
2023/12/28 10:42:15;;;;;;;79.72;36.65;;;26.10;40.40;;;;;;6240389;27;83897;-64
2023/12/28 10:45:16;;;;;;;63.30;31.80;;;26.20;40.20;;;;;;6249405;27;85905;-62
2023/12/28 10:48:17;;;;;;;61.75;29.65;;;26.30;40.20;;;;;;6245554;27;85156;-64
2023/12/28 10:51:17;;;;;;;52.95;25.17;;;26.40;40.00;;;;;;6245752;27;84491;-63
2023/12/28 10:54:18;;;;;;;40.60;21.00;;;26.40;39.90;;;;;;6247546;27;83479;-61
2023/12/28 10:57:19;;;;;;;37.85;18.90;;;26.50;39.80;;;;;;6250122;27;83166;-60
2023/12/28 11:00:20;;;;;;;31.08;15.43;;;26.50;39.30;;;;;;6249626;27;83288;-58
2023/12/28 11:03:20;;;;;;;29.90;15.23;;;26.50;39.40;;;;;;6243634;27;86935;-60
2023/12/28 11:06:21;;;;;;;27.70;15.02;;;26.50;39.80;;;;;;6242926;27;84516;-62
2023/12/28 11:09:21;;;;;;;25.13;12.60;;;26.60;40.00;;;;;;6246212;27;83911;-60
2023/12/28 11:12:22;;;;;;;20.75;11.60;;;26.70;40.10;;;;;;6246760;27;83807;-60
2023/12/28 11:15:23;;;;;;;24.00;11.65;;;26.70;40.20;;;;;;6245977;27;83091;-58
2023/12/28 11:18:24;;;;;;;28.73;12.15;;;26.70;40.50;;;;;;6230323;28;86230;-61
2023/12/28 11:21:24;;;;;;;26.83;12.30;;;26.80;40.70;;;;;;6248857;27;84569;-60
2023/12/28 11:24:25;;;;;;;18.05;10.27;;;26.80;40.60;;;;;;6248282;27;82978;-55
2023/12/28 11:27:26;;;;;;;22.83;11.65;;;26.80;40.60;;;;;;6243534;27;83418;-59
2023/12/28 11:30:27;;;;;;;20.35;11.40;;;26.90;40.70;;;;;;6246983;27;83082;-59
2023/12/28 11:33:28;;;;;;;19.95;10.30;;;26.80;40.60;;;;;;6246927;27;83639;-55
2023/12/28 11:36:28;;;;;;;17.75;10.02;;;26.90;41.10;;;;;;6248085;27;83311;-57
2023/12/28 11:39:29;;;;;;;20.42;10.50;;;26.90;41.00;;;;;;6246314;27;83348;-56
2023/12/28 11:42:29;;;;;;;20.63;10.32;;;26.90;41.00;;;;;;6248195;27;82943;-58
2023/12/28 11:45:30;;;;;;;26.63;10.77;;;27.00;41.20;;;;;;6240706;27;83205;-58
2023/12/28 11:48:30;;;;;;;20.25;9.32;;;27.00;41.10;;;;;;6245938;27;83115;-57
2023/12/28 11:51:31;;;;;;;18.50;10.38;;;27.10;41.00;;;;;;6250823;27;83786;-53
2023/12/28 11:54:32;;;;;;;20.40;10.00;;;27.10;41.00;;;;;;6248511;27;83344;-59
2023/12/28 11:57:32;;;;;;;20.50;8.85;;;27.20;41.10;;;;;;6244261;27;83618;-59
2023/12/28 12:00:32;;;;;;;22.10;10.07;;;27.20;41.70;;;;;;6249571;27;83002;-56
2023/12/28 12:03:33;;;;;;;16.50;9.15;;;27.30;41.30;;;;;;6247077;27;84205;-54
2023/12/28 12:06:33;;;;;;;17.65;9.73;;;27.30;41.40;;;;;;6250644;27;83041;-53
2023/12/28 12:09:34;;;;;;;20.48;10.63;;;27.30;41.00;;;;;;6248971;27;81941;-55
2023/12/28 12:12:35;;;;;;;16.85;11.30;;;27.30;39.40;;;;;;6240604;27;85014;-54
2023/12/28 12:15:36;;;;;;;19.48;10.88;;;27.30;38.40;;;;;;6241389;28;83309;-50
2023/12/28 12:18:36;;;;;;;23.23;13.52;;;27.30;38.00;;;;;;6245726;27;83031;-57
2023/12/28 12:21:37;;;;;;;19.70;11.82;;;27.20;37.90;;;;;;6243459;27;83093;-52
2023/12/28 12:24:37;;;;;;;20.63;12.40;;;27.20;37.70;;;;;;6228222;27;82885;-56
2023/12/28 12:27:38;;;;;;;22.33;12.40;;;27.20;37.50;;;;;;6216939;27;83664;-54
2023/12/28 12:30:38;;;;;;;24.65;13.18;;;27.20;37.70;;;;;;6228939;27;85140;-52
2023/12/28 12:33:39;;;;;;;19.90;12.98;;;27.10;37.10;;;;;;6232466;27;84713;-53
2023/12/28 12:36:40;;;;;;;22.63;12.18;;;27.10;36.90;;;;;;6229381;27;84664;-50
2023/12/28 12:39:40;;;;;;;23.77;12.85;;;27.10;36.80;;;;;;6230151;27;83589;-51
2023/12/28 12:42:42;;;;;;;19.65;12.43;;;27.10;37.20;;;;;;6231908;27;83864;-54
2023/12/28 12:45:42;;;;;;;20.95;13.30;;;27.00;36.60;;;;;;6231921;27;83173;-53
2023/12/28 12:48:43;;;;;;;19.88;13.10;;;27.10;36.30;;;;;;6232233;27;90777;-53
2023/12/28 12:51:43;;;;;;;24.70;13.13;;;27.10;36.20;;;;;;6232578;27;83768;-53
2023/12/28 12:54:44;;;;;;;23.73;13.82;;;27.10;36.30;;;;;;6211341;27;85216;-54
2023/12/28 12:57:44;;;;;;;29.63;16.65;;;27.20;36.20;;;;;;6232268;27;83549;-55
2023/12/28 13:00:46;;;;;;;39.13;23.02;;;27.40;36.70;;;;;;6235301;27;84031;-50
2023/12/28 13:03:46;;;;;;;76.28;53.58;;;27.50;37.70;;;;;;6235556;27;85421;-54
2023/12/28 13:06:47;;;;;;;86.15;64.20;;;27.50;38.30;;;;;;6222713;27;84285;-52
2023/12/28 13:09:47;;;;;;;95.10;82.70;;;27.50;38.00;;;;;;6242154;27;83966;-51
2023/12/28 13:12:48;;;;;;;84.50;68.13;;;27.60;38.40;;;;;;6234853;27;84595;-56
2023/12/28 13:15:48;;;;;;;68.63;57.90;;;27.50;38.00;;;;;;6248463;27;83171;-59
2023/12/28 13:18:49;;;;;;;60.08;43.97;;;27.40;37.50;;;;;;6249308;27;83156;-60
2023/12/28 13:21:49;;;;;;;43.60;31.10;;;27.30;37.20;;;;;;6250455;27;83149;-59
2023/12/28 13:24:50;;;;;;;40.40;28.75;;;27.30;37.90;;;;;;6247858;27;83098;-60
2023/12/28 13:27:50;;;;;;;42.63;25.60;;;27.20;38.10;;;;;;6249281;27;84099;-59
2023/12/28 13:30:55;;;;;;;30.80;19.45;;;27.20;38.10;;;;;;6246944;27;83426;-60
2023/12/28 13:33:56;;;;;;;27.80;16.65;;;27.10;37.50;;;;;;6250241;27;85051;-59
2023/12/28 13:36:56;;;;;;;29.30;16.15;;;27.10;36.60;;;;;;6247874;27;84226;-60
2023/12/28 13:39:57;;;;;;;27.98;14.48;;;26.90;35.70;;;;;;6247552;27;83068;-62
2023/12/28 13:42:57;;;;;;;21.80;13.70;;;26.70;34.90;;;;;;6248343;27;83338;-61
2023/12/28 13:45:58;;;;;;;25.27;13.38;;;26.70;35.90;;;;;;6250551;27;83170;-59
2023/12/28 13:48:58;;;;;;;24.67;12.95;;;26.40;35.50;;;;;;6237380;28;86613;-59
2023/12/28 13:51:59;;;;;;;21.02;12.45;;;26.20;35.40;;;;;;6250166;27;82988;-58
2023/12/28 13:54:59;;;;;;;23.13;11.00;;;25.90;34.80;;;;;;6249279;27;83463;-57
2023/12/28 13:58:00;;;;;;;30.33;12.15;;;25.70;34.50;;;;;;6237512;27;83834;-59
2023/12/28 14:01:00;;;;;;;37.75;18.80;;;25.50;34.90;;;;;;6236665;27;84957;-60
2023/12/28 14:04:01;;;;;;;90.07;40.97;;;25.40;35.00;;;;;;6248166;27;83171;-58
2023/12/28 14:07:01;;;;;;;241.82;108.78;;;25.20;35.40;;;;;;6247450;27;85260;-57
2023/12/28 14:10:02;;;;;;;242.77;110.63;;;25.20;36.30;;;;;;6245118;27;88967;-59
2023/12/28 14:13:02;;;;;;;283.15;130.60;;;25.10;36.30;;;;;;6238601;27;87886;-61
2023/12/28 14:16:03;;;;;;;545.83;258.90;;;25.20;37.20;;;;;;6245088;27;86432;-59
2023/12/28 14:19:03;;;;;;;470.80;215.23;;;25.20;37.40;;;;;;6245880;27;85923;-59
2023/12/28 14:22:03;;;;;;;299.30;132.00;;;25.20;37.60;;;;;;6244864;27;85409;-57
2023/12/28 14:25:04;;;;;;;248.00;105.95;;;25.20;38.00;;;;;;6247543;27;85893;-59
2023/12/28 14:28:04;;;;;;;246.85;108.60;;;25.10;38.20;;;;;;6244630;27;85729;-59
2023/12/28 14:31:05;;;;;;;159.85;71.72;;;25.00;38.20;;;;;;6243010;27;85771;-58
2023/12/28 14:34:05;;;;;;;131.45;57.15;;;24.90;37.80;;;;;;6245157;27;85922;-58
2023/12/28 14:37:06;;;;;;;110.32;50.50;;;24.90;37.90;;;;;;6246378;27;83474;-59
2023/12/28 14:40:07;;;;;;;85.57;35.60;;;24.80;38.20;;;;;;6248016;27;82946;-56
2023/12/28 14:43:08;;;;;;;79.45;37.55;;;24.80;38.30;;;;;;6249028;27;84119;-59
2023/12/28 14:46:08;;;;;;;55.05;28.55;;;24.80;39.20;;;;;;6246231;27;83110;-57
2023/12/28 14:49:08;;;;;;;53.40;23.85;;;24.70;38.20;;;;;;6245920;27;83532;-52
2023/12/28 14:52:09;;;;;;;37.83;20.40;;;24.60;37.50;;;;;;6245795;27;86314;-58
2023/12/28 14:55:09;;;;;;;40.58;19.10;;;24.50;37.30;;;;;;6239682;27;83704;-56
2023/12/28 14:58:10;;;;;;;35.58;17.95;;;24.40;37.50;;;;;;6247152;27;83079;-56
2023/12/28 15:01:10;;;;;;;32.97;17.58;;;24.40;37.60;;;;;;6247793;27;83078;-55
2023/12/28 15:04:11;;;;;;;30.58;17.05;;;24.40;37.50;;;;;;6247247;27;83020;-57
2023/12/28 15:07:11;;;;;;;26.17;15.00;;;24.20;37.10;;;;;;6246833;27;83561;-56
2023/12/28 15:10:12;;;;;;;28.85;14.90;;;24.10;37.00;;;;;;6237877;27;83483;-57
2023/12/28 15:13:12;;;;;;;21.65;13.25;;;24.00;37.10;;;;;;6247458;27;84053;-56